Wetterdaten: aktuell Freitag, 05.06.2020 15:26
Datum Zeit Temp. Nord Temp. Sd Luftfeuchte Luftdruck Regen Wind Richtung Richtung Sonnenschein Helligkeit Taupunkt Windchill
05.06.2020 15:26 10,4 C 9,8 C 90 % 999,0 hPa 0,0 l/m 17,1 km/h (3 Bft) SW67.5 215 0 min 9,3 klux 8,2 C 4,1 C
05.06.2020 14:26 10,5 C 9,9 C 90 % 999,0 hPa 0,0 l/m 24,3 km/h (4 Bft) S-SW45 195 0 min 28,7 klux 8,3 C 1,9 C
05.06.2020 13:26 9,8 C 9,2 C 91 % 999,2 hPa 2,2 l/m 12,4 km/h (3 Bft) SW67.5 215 0 min 15,4 klux 7,8 C 5,4 C
05.06.2020 12:26 10,4 C 9,8 C 90 % 999,0 hPa 0,0 l/m 17,0 km/h (3 Bft) S-SW45 205 0 min 37,8 klux 8,2 C 4,1 C
05.06.2020 11:26 10,5 C 9,7 C 91 % 999,0 hPa 0,4 l/m 19,0 km/h (3 Bft) S-SW45 210 0 min 38,0 klux 8,3 C 3,2 C
05.06.2020 10:26 9,6 C 8,9 C 91 % 999,3 hPa 0,0 l/m 28,4 km/h (4 Bft) SW45 230 0 min 21,2 klux 7,5 C -0,5 C
05.06.2020 09:26 9,7 C 8,8 C 92 % 999,3 hPa 0,0 l/m 15,7 km/h (3 Bft) SW45 225 0 min 16,6 klux 7,6 C 3,4 C
05.06.2020 08:26 10,0 C 8,9 C 92 % 999,3 hPa 0,0 l/m 8,7 km/h (2 Bft) SW45 230 9 min 11,3 klux 7,7 C 7,2 C
05.06.2020 07:26 9,1 C 8,4 C 93 % 999,4 hPa 0,0 l/m 0,4 km/h (0 Bft) S 175 3 min 27,3 klux 7,3 C 8,4 C
05.06.2020 06:26 8,8 C 8,1 C 93 % 998,4 hPa 0,4 l/m 5,4 km/h (1 Bft) W-SW22.5 255 0 min 5,39 klux 7,0 C 8,1 C
05.06.2020 05:26 8,9 C 8,2 C 93 % 998,4 hPa 0,4 l/m 3,1 km/h (1 Bft) W-SW22.5 245 0 min 117 lux 7,1 C 8,2 C
05.06.2020 04:26 9,2 C 8,6 C 93 % 998,3 hPa 0,0 l/m 5,0 km/h (1 Bft) SW 215 0 min 0 lux 7,5 C 8,6 C
05.06.2020 03:26 9,5 C 8,8 C 92 % 998,2 hPa 0,7 l/m 9,1 km/h (2 Bft) W22.5 260 0 min 0 lux 7,6 C 6,8 C
05.06.2020 02:26 9,8 C 9,0 C 92 % 998,2 hPa 0,0 l/m 4,5 km/h (1 Bft) SW 230 0 min 0 lux 7,8 C 9,0 C
05.06.2020 01:26 10,3 C 9,6 C 92 % 998,0 hPa 0,0 l/m 4,3 km/h (1 Bft) SW 220 0 min 0 lux 8,4 C 9,6 C
05.06.2020 00:26 10,4 C 9,9 C 92 % 997,9 hPa 1,8 l/m 9,8 km/h (2 Bft) SW22.5 220 0 min 0 lux 8,7 C 7,6 C
04.06.2020 23:26 11,1 C 10,5 C 91 % 996,6 hPa 1,4 l/m 8,4 km/h (2 Bft) SW22.5 230 0 min 0 lux 9,1 C 9,1 C
04.06.2020 22:26 11,8 C 11,2 C 92 % 996,4 hPa 0,0 l/m 8,3 km/h (2 Bft) S45 180 0 min 0 lux 9,9 C 9,9 C
04.06.2020 21:26 12,2 C 11,5 C 91 % 995,2 hPa 0,0 l/m 10,6 km/h (2 Bft) S-SW45 210 0 min 102 lux 10,1 C 8,9 C
04.06.2020 20:25 12,8 C 12,1 C 91 % 995,1 hPa 0,0 l/m 12,5 km/h (3 Bft) S22.5 185 0 min 5,40 klux 10,7 C 8,7 C
04.06.2020 19:25 13,2 C 12,5 C 91 % 994,9 hPa 0,0 l/m 8,9 km/h (2 Bft) S22.5 185 0 min 5,40 klux 11,1 C 11,0 C
04.06.2020 18:25 13,3 C 12,6 C 91 % 994,9 hPa 0,0 l/m 15,0 km/h (3 Bft) S-SW45 210 0 min 19,3 klux 11,2 C 8,3 C
04.06.2020 17:25 13,1 C 12,4 C 90 % 995,0 hPa 3,6 l/m 13,7 km/h (3 Bft) S22.5 185 0 min 9,8 klux 10,8 C 8,6 C
04.06.2020 16:25 13,6 C 12,7 C 88 % 994,9 hPa 1,4 l/m 3,4 km/h (1 Bft) W-SW 255 0 min 11,3 klux 10,8 C 12,7 C
04.06.2020 16:01 14,1 C 13,2 C 86 % 994,7 hPa 0,0 l/m 10,0 km/h (2 Bft) S-SW45 210 0 min 7,42 klux 10,9 C 11,1 C
_ Min-Zeit 05:44 06:38 16:01 16:01 - 16:28 - - - - 06:38 13:59
Minimum _ 8,8 C 8,0 C 86 % 994,7 hPa - 0,0 km/h (0 Bft) - - - - 6,9 C -1,0 C
_ Max-Zeit 16:01 16:01 02:50 06:38 16:55 15:11 - - 07:26 14:32 19:10 16:16
Maximum _ 14,1 C 13,2 C 93 % 999,6 hPa 1,1 l/m 37,8 km/h
SW (5 Bft)
- - 3 min 68,0 klux 11,4 C 12,8 C
Durchschnitt _ 10,8 C 10,1 C 91 % 997,6 hPa #12,6 l/m 11,2 km/h (2 Bft) SW - #12 min. 10,2 klux 8,7 C 7,2 C